Terminal Aerodrome Forecast
Issued by NWS

Home | Current Version | Previous Version | Text Only | Print | Product List | Glossary On
Versions: 1 2 3 4 5 6 7 8 9 10 11 12
590
FTPA31 PHFO 241736
TAFHKO
TAF
PHKO 241736Z 2418/2518 VRB04KT P6SM FEW035 SCT050
     FM242000 26008KT P6SM FEW045 SCT070
     FM242300 21007KT P6SM VCSH BKN060
     FM250700 06004KT P6SM FEW045 SCT070=

USA.gov is the U.S. government's official web portal to all federal, state and local government web resources and services.